createdAt,value
2022-08-28T00:02:57.007Z,78.76
2022-08-28T00:06:00.245Z,78.79
2022-08-28T00:09:02.187Z,78.61
2022-08-28T00:12:05.397Z,79.12
2022-08-28T00:15:15.451Z,78.75
2022-08-28T00:18:17.840Z,78.42
2022-08-28T00:21:19.446Z,78.20
2022-08-28T00:24:21.324Z,78.27
2022-08-28T00:27:41.595Z,78.04
2022-08-28T00:30:48.256Z,78.22
2022-08-28T00:33:51.327Z,78.56
2022-08-28T00:36:52.905Z,77.87
2022-08-28T00:39:54.923Z,77.76
2022-08-28T00:42:59.069Z,78.02
2022-08-28T00:46:07.234Z,77.85
2022-08-28T00:49:09.835Z,78.09
2022-08-28T00:52:15.244Z,77.92
2022-08-28T00:55:20.827Z,78.26
2022-08-28T00:58:22.516Z,77.92
2022-08-28T01:01:24.733Z,77.96
2022-08-28T01:04:29.542Z,77.76
2022-08-28T01:07:31.550Z,77.68
2022-08-28T01:10:34.817Z,77.65
2022-08-28T01:13:41.138Z,77.25
2022-08-28T01:16:43.628Z,77.05
2022-08-28T01:19:57.058Z,77.60
2022-08-28T01:23:17.536Z,77.31
2022-08-28T01:26:20.139Z,77.45
2022-08-28T01:29:21.740Z,77.45
2022-08-28T01:32:37.827Z,77.40
2022-08-28T01:35:43.754Z,77.48
2022-08-28T01:38:49.614Z,77.62
2022-08-28T01:41:54.707Z,77.55
2022-08-28T01:44:56.949Z,77.60
2022-08-28T01:47:58.569Z,78.14
2022-08-28T01:51:00.361Z,77.98
2022-08-28T01:54:02.456Z,78.28
2022-08-28T01:57:04.328Z,77.95
2022-08-28T02:00:06.716Z,78.21
2022-08-28T02:03:13.766Z,78.25
2022-08-28T02:06:16.835Z,78.44
2022-08-28T02:09:19.156Z,78.30
2022-08-28T02:12:20.819Z,78.59
2022-08-28T02:15:25.433Z,78.46
2022-08-28T02:18:27.120Z,78.87
2022-08-28T02:21:28.821Z,78.75
2022-08-28T02:24:30.407Z,78.68
2022-08-28T02:27:32.140Z,78.66
2022-08-28T02:30:34.873Z,78.67
2022-08-28T02:33:43.477Z,78.46
2022-08-28T02:36:45.163Z,78.62
2022-08-28T02:39:47.196Z,78.68
2022-08-28T02:42:49.732Z,78.48
2022-08-28T02:45:51.379Z,78.51
2022-08-28T02:48:53.035Z,78.75
2022-08-28T02:51:56.817Z,78.68
2022-08-28T02:54:59.088Z,78.35
2022-08-28T02:58:00.922Z,78.07
2022-08-28T03:01:04.909Z,78.37
2022-08-28T03:04:06.662Z,78.85
2022-08-28T03:07:10.002Z,78.90
2022-08-28T03:10:13.154Z,79.54
2022-08-28T03:13:26.820Z,79.65
2022-08-28T03:16:29.991Z,79.30
2022-08-28T03:19:32.129Z,79.76
2022-08-28T03:22:52.357Z,79.82
2022-08-28T03:26:05.768Z,79.87
2022-08-28T03:29:07.428Z,79.93
2022-08-28T03:32:09.051Z,80.07
2022-08-28T03:35:11.951Z,80.30
2022-08-28T03:38:13.887Z,80.07
2022-08-28T03:41:18.449Z,80.25
2022-08-28T03:44:20.031Z,80.31
2022-08-28T03:47:22.543Z,80.31
2022-08-28T03:50:24.494Z,80.67
2022-08-28T03:53:29.104Z,80.84
2022-08-28T03:56:31.763Z,80.92
2022-08-28T03:59:33.685Z,81.01
2022-08-28T04:02:35.407Z,80.74
2022-08-28T04:05:37.581Z,80.97
2022-08-28T04:08:39.605Z,80.86
2022-08-28T04:11:42.923Z,80.89
2022-08-28T04:14:44.571Z,81.09
2022-08-28T04:17:46.169Z,81.22
2022-08-28T04:20:58.568Z,81.21
2022-08-28T04:24:00.205Z,81.35
2022-08-28T04:27:01.971Z,81.53
2022-08-28T04:30:04.595Z,81.38
2022-08-28T04:33:18.700Z,81.63
2022-08-28T04:36:20.271Z,81.28
2022-08-28T04:39:21.951Z,81.21
2022-08-28T04:42:23.775Z,81.13
2022-08-28T04:45:25.372Z,81.43
2022-08-28T04:48:27.514Z,81.72
2022-08-28T04:51:29.225Z,81.81
2022-08-28T04:54:35.829Z,81.87
2022-08-28T04:57:37.316Z,81.59
2022-08-28T05:00:40.437Z,81.57
2022-08-28T05:03:42.362Z,81.63
2022-08-28T05:06:46.229Z,81.11
2022-08-28T05:09:48.406Z,81.19
2022-08-28T05:12:50.633Z,80.63
2022-08-28T05:15:52.938Z,80.32
2022-08-28T05:18:54.634Z,80.58
2022-08-28T05:21:56.508Z,80.60
2022-08-28T05:24:58.379Z,80.09
2022-08-28T05:28:00.034Z,80.02
2022-08-28T05:31:20.982Z,79.86
2022-08-28T05:34:22.657Z,79.64
2022-08-28T05:37:24.519Z,79.35
2022-08-28T05:40:26.265Z,78.98
2022-08-28T05:43:28.014Z,78.93
2022-08-28T05:46:29.837Z,78.80
2022-08-28T05:49:31.491Z,79.12
2022-08-28T05:52:35.186Z,78.33
2022-08-28T05:55:40.510Z,78.53
2022-08-28T05:58:42.583Z,78.56
2022-08-28T06:01:47.412Z,77.99
2022-08-28T06:04:49.146Z,77.71
2022-08-28T06:07:52.446Z,78.19
2022-08-28T06:10:54.606Z,77.87
2022-08-28T06:13:57.780Z,77.83
2022-08-28T06:17:00.004Z,77.23
2022-08-28T06:20:02.352Z,77.05
2022-08-28T06:23:04.015Z,77.04
2022-08-28T06:26:06.953Z,76.43
2022-08-28T06:29:13.970Z,76.04
2022-08-28T06:32:15.741Z,75.67
2022-08-28T06:35:17.409Z,75.19
2022-08-28T06:38:20.959Z,74.80
2022-08-28T06:41:22.903Z,74.85
2022-08-28T06:44:25.760Z,74.62
2022-08-28T06:47:27.431Z,74.70
2022-08-28T06:50:29.022Z,73.86
2022-08-28T06:53:30.958Z,73.53
2022-08-28T06:56:32.907Z,73.68
2022-08-28T06:59:34.929Z,73.59
2022-08-28T07:02:36.626Z,73.34
2022-08-28T07:05:38.457Z,72.88
2022-08-28T07:08:41.226Z,72.55
2022-08-28T07:11:46.707Z,72.86
2022-08-28T07:14:48.553Z,72.66
2022-08-28T07:17:51.283Z,71.91
2022-08-28T07:21:00.771Z,71.16
2022-08-28T07:24:04.488Z,70.31
2022-08-28T07:27:06.166Z,69.62
2022-08-28T07:30:10.059Z,70.11
2022-08-28T07:33:12.223Z,69.89
2022-08-28T07:36:29.689Z,69.19
2022-08-28T07:39:31.827Z,69.82
2022-08-28T07:42:51.869Z,68.97
2022-08-28T07:46:01.693Z,69.04
2022-08-28T07:49:04.524Z,69.10
2022-08-28T07:52:08.310Z,67.58
2022-08-28T07:55:10.005Z,67.14
2022-08-28T07:58:13.813Z,67.66
2022-08-28T08:01:17.487Z,68.15
2022-08-28T08:04:21.291Z,67.86
2022-08-28T08:07:22.960Z,67.88
2022-08-28T08:10:24.643Z,67.47
2022-08-28T08:13:26.441Z,67.91
2022-08-28T08:16:28.402Z,67.16
2022-08-28T08:19:30.013Z,66.52
2022-08-28T08:22:31.902Z,66.04
2022-08-28T08:25:33.641Z,66.11
2022-08-28T08:28:37.736Z,64.86
2022-08-28T08:31:42.745Z,64.99
2022-08-28T08:34:46.029Z,64.50
2022-08-28T08:37:47.721Z,61.70
2022-08-28T08:40:49.434Z,62.47
2022-08-28T08:44:06.410Z,62.13
2022-08-28T08:47:19.531Z,62.16
2022-08-28T08:50:31.308Z,61.66
2022-08-28T08:53:51.708Z,61.89
2022-08-28T08:56:56.134Z,61.02
2022-08-28T08:59:57.952Z,60.79
2022-08-28T09:03:05.568Z,60.35
2022-08-28T09:06:18.263Z,60.44
2022-08-28T09:09:26.012Z,59.17
2022-08-28T09:12:43.996Z,58.20
2022-08-28T09:15:50.609Z,57.14
2022-08-28T09:18:57.016Z,57.39
2022-08-28T09:21:59.174Z,58.06
2022-08-28T09:25:01.067Z,55.54
2022-08-28T09:28:09.421Z,55.74
2022-08-28T09:31:20.262Z,54.99
2022-08-28T09:34:38.583Z,54.15
2022-08-28T09:37:42.538Z,54.73
2022-08-28T09:41:03.354Z,54.10
2022-08-28T09:44:05.008Z,54.25
2022-08-28T09:47:06.671Z,54.36
2022-08-28T09:50:30.306Z,54.56
2022-08-28T09:53:35.462Z,52.46
2022-08-28T09:56:41.162Z,52.94
2022-08-28T09:59:42.845Z,53.52
2022-08-28T10:03:08.302Z,54.37
2022-08-28T10:06:18.595Z,53.96
2022-08-28T10:09:36.558Z,54.26
2022-08-28T10:12:50.381Z,53.59
2022-08-28T10:16:24.766Z,53.03
2022-08-28T10:19:41.834Z,51.93
2022-08-28T10:22:50.120Z,52.47
2022-08-28T10:26:22.897Z,53.05
2022-08-28T10:29:27.737Z,52.12
2022-08-28T10:32:41.388Z,52.12
2022-08-28T10:36:01.430Z,52.54
2022-08-28T10:39:06.189Z,52.79
2022-08-28T10:42:07.871Z,52.43
2022-08-28T10:45:23.735Z,51.28
2022-08-28T10:48:32.103Z,52.60
2022-08-28T10:51:43.145Z,52.90
2022-08-28T10:55:01.383Z,52.03
2022-08-28T10:58:24.285Z,50.34
2022-08-28T11:01:39.980Z,52.58
2022-08-28T11:04:42.049Z,51.81
2022-08-28T11:07:52.395Z,51.29
2022-08-28T11:10:59.307Z,51.11
2022-08-28T11:14:02.232Z,51.03
2022-08-28T11:17:14.236Z,50.76
2022-08-28T11:20:24.835Z,50.70
2022-08-28T11:23:50.961Z,51.05
2022-08-28T11:27:21.467Z,51.37
2022-08-28T11:30:32.708Z,51.84
2022-08-28T11:33:44.259Z,51.12
2022-08-28T11:36:45.846Z,50.90
2022-08-28T11:39:47.544Z,50.11
2022-08-28T11:42:49.532Z,51.30
2022-08-28T11:45:54.886Z,50.91
2022-08-28T11:49:00.141Z,51.04
2022-08-28T11:52:10.322Z,50.87
2022-08-28T11:55:36.233Z,49.92
2022-08-28T11:58:47.116Z,50.37
2022-08-28T12:01:49.423Z,50.57
2022-08-28T12:04:58.311Z,49.84
2022-08-28T12:08:02.550Z,50.65
2022-08-28T12:11:04.953Z,49.90
2022-08-28T12:14:08.137Z,49.02
2022-08-28T12:17:21.734Z,48.04
2022-08-28T12:20:32.689Z,48.06
2022-08-28T12:23:53.120Z,48.27
2022-08-28T12:26:58.965Z,48.35
2022-08-28T12:30:05.171Z,47.07
2022-08-28T12:33:25.734Z,46.93
2022-08-28T12:41:22.910Z,47.29
2022-08-28T12:44:31.005Z,47.79
2022-08-28T12:47:37.469Z,47.21
2022-08-28T12:50:40.063Z,46.50
2022-08-28T12:53:46.292Z,47.87
2022-08-28T12:56:47.915Z,47.53
2022-08-28T13:00:09.379Z,46.46
2022-08-28T13:03:11.059Z,46.16
2022-08-28T13:06:13.730Z,46.76
2022-08-28T13:09:18.816Z,46.44
2022-08-28T13:12:54.431Z,48.09
2022-08-28T13:16:03.651Z,48.74
2022-08-28T13:19:05.536Z,49.09
2022-08-28T13:22:38.488Z,48.01
2022-08-28T13:25:43.345Z,47.06
2022-08-28T13:28:45.147Z,47.55
2022-08-28T13:32:02.645Z,49.18
2022-08-28T13:35:29.719Z,48.49
2022-08-28T13:38:31.258Z,46.78
2022-08-28T13:41:33.281Z,46.14
2022-08-28T13:44:42.037Z,47.43
2022-08-28T13:47:43.698Z,47.02
2022-08-28T13:50:49.623Z,48.25
2022-08-28T13:53:53.445Z,48.01
2022-08-28T13:56:55.963Z,48.09
2022-08-28T13:59:57.726Z,47.98
2022-08-28T14:03:20.930Z,47.24
2022-08-28T14:06:31.530Z,48.21
2022-08-28T14:09:37.115Z,47.16
2022-08-28T14:12:41.493Z,47.91
2022-08-28T14:15:46.378Z,47.41
2022-08-28T14:18:48.152Z,46.01
2022-08-28T14:21:50.189Z,46.06
2022-08-28T14:33:36.806Z,45.20
2022-08-28T14:59:48.419Z,45.53
2022-08-28T15:02:50.060Z,45.98
2022-08-28T15:06:06.913Z,46.82
2022-08-28T15:09:10.129Z,45.65
2022-08-28T15:12:11.823Z,45.93
2022-08-28T15:15:13.508Z,46.06
2022-08-28T15:18:15.315Z,46.35
2022-08-28T15:21:35.344Z,45.57
2022-08-28T15:24:37.311Z,45.95
2022-08-28T15:27:38.939Z,45.36
2022-08-28T15:30:41.672Z,46.24
2022-08-28T15:33:45.486Z,44.85
2022-08-28T15:36:55.105Z,46.48
2022-08-28T15:40:16.682Z,46.06
2022-08-28T15:43:18.746Z,45.24
2022-08-28T15:46:20.823Z,45.69
2022-08-28T15:49:23.860Z,45.39
2022-08-28T15:52:25.794Z,45.61
2022-08-28T15:55:27.820Z,45.35
2022-08-28T15:58:31.354Z,45.18
2022-08-28T16:01:33.054Z,45.00
2022-08-28T16:04:34.702Z,45.38
2022-08-28T16:07:36.445Z,45.97
2022-08-28T16:10:39.058Z,46.31
2022-08-28T16:13:40.879Z,46.82
2022-08-28T16:16:46.466Z,47.49
2022-08-28T16:19:50.923Z,47.05
2022-08-28T16:22:52.975Z,47.78
2022-08-28T16:25:55.251Z,48.24
2022-08-28T16:28:57.065Z,48.34
2022-08-28T16:31:59.102Z,48.02
2022-08-28T16:35:03.045Z,48.98
2022-08-28T16:38:04.763Z,49.83
2022-08-28T16:41:14.973Z,49.19
2022-08-28T16:44:26.092Z,49.56
2022-08-28T16:47:31.796Z,49.54
2022-08-28T16:50:33.848Z,50.17
2022-08-28T16:53:35.840Z,50.60
2022-08-28T16:56:37.798Z,51.24
2022-08-28T16:59:39.773Z,51.10
2022-08-28T17:02:43.297Z,50.39
2022-08-28T17:05:45.077Z,50.90
2022-08-28T17:08:48.022Z,50.05
2022-08-28T17:11:52.170Z,50.62
2022-08-28T17:14:56.464Z,52.03
2022-08-28T17:17:58.154Z,52.14
2022-08-28T17:21:18.337Z,52.84
2022-08-28T17:24:20.044Z,53.76
2022-08-28T17:27:22.872Z,53.71
2022-08-28T17:30:25.478Z,52.48
2022-08-28T17:33:27.428Z,53.01
2022-08-28T17:37:14.719Z,52.66
2022-08-28T17:40:54.008Z,53.80
2022-08-28T17:44:00.739Z,55.20
2022-08-28T17:47:03.037Z,55.64
2022-08-28T17:50:05.966Z,55.46
2022-08-28T17:53:07.789Z,56.25
2022-08-28T17:56:09.781Z,57.05
2022-08-28T17:59:12.034Z,56.88
2022-08-28T18:02:16.607Z,58.22
2022-08-28T18:05:18.548Z,57.74
2022-08-28T18:08:20.193Z,57.87
2022-08-28T18:11:21.860Z,58.25
2022-08-28T18:14:23.671Z,57.78
2022-08-28T18:17:25.475Z,58.43
2022-08-28T18:20:27.272Z,58.99
2022-08-28T18:23:29.771Z,59.57
2022-08-28T18:26:31.494Z,59.67
2022-08-28T18:29:34.568Z,59.20
2022-08-28T18:32:36.908Z,59.30
2022-08-28T18:35:44.152Z,59.65
2022-08-28T18:38:48.127Z,60.05
2022-08-28T18:41:50.336Z,60.08
2022-08-28T18:44:51.972Z,60.49
2022-08-28T18:47:53.719Z,60.90
2022-08-28T18:50:55.515Z,61.14
2022-08-28T18:53:57.697Z,61.40
2022-08-28T18:57:04.369Z,61.48
2022-08-28T19:00:07.228Z,61.96
2022-08-28T19:03:09.347Z,62.46
2022-08-28T19:06:15.389Z,62.63
2022-08-28T19:09:20.303Z,62.89
2022-08-28T19:12:22.369Z,63.59
2022-08-28T19:15:25.071Z,63.98
2022-08-28T19:18:28.679Z,64.54
2022-08-28T19:21:30.552Z,64.75
2022-08-28T19:24:33.830Z,64.84
2022-08-28T19:27:38.119Z,64.99
2022-08-28T19:30:40.061Z,65.40
2022-08-28T19:33:41.869Z,65.24
2022-08-28T19:36:43.611Z,65.45
2022-08-28T19:39:49.207Z,65.66
2022-08-28T19:42:58.384Z,66.60
2022-08-28T19:46:09.407Z,66.74
2022-08-28T19:49:16.354Z,66.95
2022-08-28T19:52:26.093Z,66.97
2022-08-28T19:55:31.569Z,67.06
2022-08-28T19:58:39.464Z,67.21
2022-08-28T20:01:44.923Z,67.50
2022-08-28T20:04:46.740Z,67.88
2022-08-28T20:07:49.234Z,68.14
2022-08-28T20:10:51.222Z,68.45
2022-08-28T20:13:56.480Z,68.63
2022-08-28T20:16:58.503Z,68.91
2022-08-28T20:20:03.002Z,69.19
2022-08-28T20:23:08.553Z,69.38
2022-08-28T20:26:11.148Z,69.70
2022-08-28T20:29:14.183Z,70.01
2022-08-28T20:32:18.603Z,70.06
2022-08-28T20:35:22.135Z,70.38
2022-08-28T20:38:26.525Z,70.51
2022-08-28T20:41:28.583Z,70.79
2022-08-28T20:44:32.406Z,70.87
2022-08-28T20:47:34.403Z,71.30
2022-08-28T20:50:36.227Z,71.26
2022-08-28T20:53:38.178Z,71.59
2022-08-28T20:56:42.679Z,71.48
2022-08-28T20:59:48.806Z,72.11
2022-08-28T21:02:50.595Z,72.25
2022-08-28T21:06:01.823Z,72.51
2022-08-28T21:09:03.782Z,72.88
2022-08-28T21:12:05.809Z,72.97
2022-08-28T21:15:11.429Z,72.88
2022-08-28T21:18:13.993Z,73.37
2022-08-28T21:21:20.268Z,73.51
2022-08-28T21:24:31.772Z,73.64
2022-08-28T21:27:33.844Z,73.90
2022-08-28T21:30:41.093Z,73.96
2022-08-28T21:33:43.692Z,74.23
2022-08-28T21:36:57.651Z,74.38
2022-08-28T21:40:00.436Z,74.51
2022-08-28T21:43:02.333Z,74.59
2022-08-28T21:46:06.425Z,74.53
2022-08-28T21:49:08.282Z,74.68
2022-08-28T21:52:09.967Z,74.75
2022-08-28T21:55:14.750Z,74.67
2022-08-28T21:58:17.181Z,74.86
2022-08-28T22:01:20.654Z,74.84
2022-08-28T22:04:22.514Z,74.90
2022-08-28T22:07:24.213Z,74.83
2022-08-28T22:10:26.311Z,74.90
2022-08-28T22:13:28.057Z,75.02
2022-08-28T22:16:30.158Z,74.96
2022-08-28T22:19:32.094Z,74.96
2022-08-28T22:23:09.200Z,75.13
2022-08-28T22:26:17.601Z,75.09
2022-08-28T22:29:20.251Z,75.08
2022-08-28T22:32:25.587Z,75.07
2022-08-28T22:35:28.212Z,75.05
2022-08-28T22:38:30.990Z,75.25
2022-08-28T22:41:33.006Z,75.31
2022-08-28T22:44:34.969Z,75.41
2022-08-28T22:47:36.771Z,75.13
2022-08-28T22:50:38.892Z,75.03
2022-08-28T22:53:43.283Z,75.13
2022-08-28T22:56:45.052Z,75.33
2022-08-28T22:59:46.742Z,75.59
2022-08-28T23:02:48.477Z,75.38
2022-08-28T23:05:51.137Z,75.58
2022-08-28T23:08:52.829Z,75.92
2022-08-28T23:11:54.654Z,75.95
2022-08-28T23:14:56.328Z,75.87
2022-08-28T23:17:57.973Z,76.05
2022-08-28T23:21:01.281Z,76.19
2022-08-28T23:24:03.424Z,76.21
2022-08-28T23:27:34.290Z,76.15
2022-08-28T23:30:27.913Z,76.29
2022-08-28T23:33:29.547Z,76.43
2022-08-28T23:36:31.338Z,76.54
2022-08-28T23:39:33.050Z,76.86
2022-08-28T23:42:35.283Z,76.74
2022-08-28T23:45:40.497Z,76.73
2022-08-28T23:48:42.287Z,77.01
2022-08-28T23:51:44.011Z,77.15
2022-08-28T23:54:47.355Z,77.06
2022-08-28T23:57:52.170Z,77.28
